PROFILE

 METAR AND TAF INFORMATION
ADDS - METARS form results

(0848 UTC 19 August 2019)
http://aviationweather.gov/metar/data/
 
LFRS 190830Z AUTO 28004KT 230V330 9999 FEW021/// SCT032/// BKN076/// ///TCU 18/14 Q1019 NOSIG
LFRS 190800Z AUTO 23003KT 150V280 CAVOK 17/15 Q1019 TEMPO SCT025TCU
TAF LFRS 190500Z 1906/2012 VRB03KT 9999 FEW025 BECMG 1908/1910 26010KT PROB30 TEMPO 1909/1912 -SHRA SCT025TCU BECMG 1922/2001 35005KT 

 AIRPORT MAP

 RUNWAY INFORMATION
Runway 03 Runway length 9514 ft Runway width 148 ft
Runway elevation 73 ft Runway displaced threshold 0 ft Runway heading 28
Runway 21 Runway length 9514 ft Runway width 148 ft
Runway elevation 86 ft Runway displaced threshold 694 ft Runway heading 208

 AIRPORT FREQUENCIES
Type APP Name APP Frequency 130.275 MHZ
Type ATIS Name ATIS Frequency 126.925 MHZ
Type GND Name GND Frequency 121.875 MHZ
Type INFO Name INFO Frequency 129.875 MHZ
Type TWR Name TWR Frequency 118.65 MHZ

 AIRPORT NEAR NAVIGATION AIDS
Type NDB Name Nantes Frequency 369 KHZ
Type VOR-DME Name Nantes Frequency 115500 KHZ